Skip Navigation LinksHome page > Weather > Current weather Skip Navigation Links

Current Weather

Metropolitan Oakland Intl, Oakland, Calif.

For information only: do not use for flight planning or navigation.
Latest weather
Observation time Wednesday, December 2, 2020 6:53 PM PST
Local time Wednesday, December 2, 2020 7:55 PM PST
Flight conditions Visual Meteorological Conditions
Winds
Wind speed calm
Visibility 10 mi.
Sky condition
Ceiling unlimited
Cloud layer scattered clouds 20,000 ft.
Temperature 56°F
Dewpoint 37°F
Altimeter 30.11 in.Hg
Pressure change last 3 hours-0.03 in.Hg
Pressure rising more quickly
Derived measurements
Relative humidity 49%
Density altitude -299 ft.
Sea-level pressure 30.11 in.Hg
Remarks
Automated weather observing station with precipitation discriminator.
METAR KOAK 030253Z 00000KT 10SM SCT200 13/03 A3011 RMK AO2 SLP195 T01330028 53010

Settings

Location code

InnerDrive.Weather 4.0.6770.0 Release CLR 4.0.30319.42000
Copyright ©2018 Inner Drive Technology. All rights reserved. Portions Copyright ©1986-2018 David Braverman.

Find weather

Site navigation


Skip Navigation Links

Place info

Page info

PayPal - The safer, easier way to pay online!

Return home.

Copyright ©2020 Inner Drive Technology. Purveyors of fine, hand-crafted computer software. Page printed 2020-12-03T03:55:44 UTC.